createdAt,value
2019-02-19T00:01:43.186Z,51.80
2019-02-19T00:04:11.482Z,52.27
2019-02-19T00:06:41.076Z,51.76
2019-02-19T00:09:09.367Z,52.55
2019-02-19T00:11:37.665Z,52.02
2019-02-19T00:14:05.936Z,52.37
2019-02-19T00:16:34.286Z,51.47
2019-02-19T00:19:02.635Z,52.74
2019-02-19T00:21:31.186Z,53.41
2019-02-19T00:24:02.295Z,52.76
2019-02-19T00:26:30.557Z,52.58
2019-02-19T00:28:58.853Z,52.39
2019-02-19T00:31:28.670Z,52.41
2019-02-19T00:33:58.572Z,52.85
2019-02-19T00:36:26.876Z,52.72
2019-02-19T00:38:55.170Z,53.46
2019-02-19T00:41:23.496Z,53.69
2019-02-19T00:43:53.389Z,53.22
2019-02-19T00:46:21.667Z,53.76
2019-02-19T00:48:50.009Z,53.41
2019-02-19T00:51:18.278Z,54.07
2019-02-19T00:53:46.557Z,54.49
2019-02-19T00:56:14.828Z,53.75
2019-02-19T00:58:43.138Z,53.33
2019-02-19T01:01:11.429Z,53.34
2019-02-19T01:03:39.687Z,53.82
2019-02-19T01:06:07.944Z,53.35
2019-02-19T01:08:36.220Z,53.49
2019-02-19T01:11:04.543Z,52.69
2019-02-19T01:13:32.810Z,53.23
2019-02-19T01:16:01.092Z,53.38
2019-02-19T01:18:29.397Z,53.16
2019-02-19T01:20:57.667Z,52.87
2019-02-19T01:23:28.347Z,53.92
2019-02-19T01:25:56.610Z,52.90
2019-02-19T01:28:24.885Z,52.75
2019-02-19T01:30:56.384Z,53.07
2019-02-19T01:33:24.658Z,53.55
2019-02-19T01:35:52.952Z,52.58
2019-02-19T01:38:21.216Z,51.72
2019-02-19T01:40:49.493Z,52.92
2019-02-19T01:43:17.756Z,53.07
2019-02-19T01:45:46.597Z,51.92
2019-02-19T01:48:14.848Z,52.22
2019-02-19T01:50:43.122Z,52.36
2019-02-19T01:53:11.382Z,51.93
2019-02-19T01:55:39.638Z,51.44
2019-02-19T01:58:07.908Z,52.68
2019-02-19T02:00:36.367Z,51.39
2019-02-19T02:03:05.091Z,52.77
2019-02-19T02:05:33.361Z,52.34
2019-02-19T02:08:01.649Z,53.55
2019-02-19T02:10:29.910Z,52.12
2019-02-19T02:12:58.193Z,53.55
2019-02-19T02:15:26.466Z,53.10
2019-02-19T02:17:54.745Z,53.08
2019-02-19T02:20:23.037Z,52.35
2019-02-19T02:22:51.291Z,52.58
2019-02-19T02:25:19.542Z,52.62
2019-02-19T02:27:48.089Z,54.45
2019-02-19T02:30:16.365Z,54.33
2019-02-19T02:32:44.652Z,54.29
2019-02-19T02:35:13.099Z,53.84
2019-02-19T02:37:41.370Z,53.25
2019-02-19T02:40:09.983Z,52.97
2019-02-19T02:42:38.312Z,53.08
2019-02-19T02:45:06.642Z,53.36
2019-02-19T02:47:35.022Z,53.61
2019-02-19T02:50:03.751Z,53.70
2019-02-19T02:52:32.024Z,53.48
2019-02-19T02:55:00.423Z,53.19
2019-02-19T02:57:28.699Z,54.45
2019-02-19T02:59:56.969Z,54.03
2019-02-19T03:02:25.252Z,53.36
2019-02-19T03:04:53.515Z,52.52
2019-02-19T03:07:23.438Z,53.28
2019-02-19T03:09:51.714Z,53.06
2019-02-19T03:12:19.991Z,53.39
2019-02-19T03:14:48.254Z,53.96
2019-02-19T03:20:17.910Z,54.18
2019-02-19T03:22:46.172Z,53.45
2019-02-19T03:25:14.440Z,53.72
2019-02-19T03:27:42.705Z,53.78
2019-02-19T03:30:11.206Z,54.62
2019-02-19T03:32:39.458Z,54.44
2019-02-19T03:35:07.793Z,55.13
2019-02-19T03:37:36.039Z,54.10
2019-02-19T03:40:07.531Z,54.43
2019-02-19T03:42:35.467Z,54.17
2019-02-19T03:45:06.025Z,55.25
2019-02-19T03:47:34.414Z,55.14
2019-02-19T03:50:02.862Z,55.98
2019-02-19T03:52:31.952Z,55.86
2019-02-19T03:55:00.380Z,55.00
2019-02-19T03:57:28.680Z,55.12
2019-02-19T04:00:00.342Z,54.63
2019-02-19T04:02:28.583Z,55.78
2019-02-19T04:04:56.915Z,55.93
2019-02-19T04:07:25.192Z,57.55
2019-02-19T04:09:53.534Z,56.79
2019-02-19T04:12:21.799Z,55.99
2019-02-19T04:14:50.052Z,55.57
2019-02-19T04:17:18.326Z,56.35
2019-02-19T04:19:46.601Z,56.38
2019-02-19T04:22:14.863Z,57.07
2019-02-19T04:24:43.113Z,57.25
2019-02-19T04:27:11.368Z,58.71
2019-02-19T04:29:42.693Z,57.22
2019-02-19T04:32:10.948Z,57.28
2019-02-19T04:34:39.207Z,57.01
2019-02-19T04:37:07.461Z,57.30
2019-02-19T04:39:35.744Z,57.83
2019-02-19T04:42:04.262Z,56.86
2019-02-19T04:44:32.783Z,57.54
2019-02-19T04:47:01.437Z,57.37
2019-02-19T04:49:29.675Z,56.48
2019-02-19T04:51:57.953Z,57.29
2019-02-19T04:54:26.217Z,57.15
2019-02-19T04:56:54.466Z,57.91
2019-02-19T04:59:22.745Z,57.39
2019-02-19T05:01:51.014Z,58.63
2019-02-19T05:04:19.309Z,58.16
2019-02-19T05:06:47.571Z,56.93
2019-02-19T05:09:15.844Z,57.31
2019-02-19T05:11:44.116Z,58.40
2019-02-19T05:14:12.370Z,59.03
2019-02-19T05:16:41.286Z,57.92
2019-02-19T05:19:09.674Z,58.63
2019-02-19T05:21:48.213Z,57.96
2019-02-19T05:24:16.476Z,58.13
2019-02-19T05:26:44.742Z,58.23
2019-02-19T05:29:12.995Z,58.87
2019-02-19T05:31:41.264Z,58.12
2019-02-19T05:34:09.525Z,59.25
2019-02-19T05:36:37.802Z,57.94
2019-02-19T05:39:06.343Z,58.69
2019-02-19T05:41:34.616Z,56.89
2019-02-19T05:44:02.876Z,58.24
2019-02-19T05:46:31.145Z,58.49
2019-02-19T05:48:59.416Z,57.32
2019-02-19T05:51:27.673Z,59.12
2019-02-19T05:53:56.370Z,58.17
2019-02-19T05:56:24.573Z,58.62
2019-02-19T05:58:52.842Z,58.02
2019-02-19T06:01:21.114Z,56.98
2019-02-19T06:03:49.443Z,57.20
2019-02-19T06:06:17.707Z,56.40
2019-02-19T06:08:46.001Z,55.86
2019-02-19T06:11:14.295Z,58.25
2019-02-19T06:13:42.573Z,58.63
2019-02-19T06:16:10.860Z,58.30
2019-02-19T06:18:39.192Z,58.21
2019-02-19T06:21:07.986Z,58.44
2019-02-19T06:23:36.760Z,57.97
2019-02-19T06:26:05.039Z,59.05
2019-02-19T06:28:33.351Z,59.44
2019-02-19T06:31:01.631Z,58.24
2019-02-19T06:33:29.963Z,58.79
2019-02-19T06:35:58.336Z,59.03
2019-02-19T06:38:26.653Z,59.10
2019-02-19T06:41:02.783Z,58.00
2019-02-19T06:43:34.078Z,58.33
2019-02-19T06:46:02.741Z,59.02
2019-02-19T06:48:31.140Z,60.58
2019-02-19T06:50:59.554Z,59.61
2019-02-19T06:53:27.886Z,59.21
2019-02-19T06:55:56.201Z,58.96
2019-02-19T06:58:24.527Z,60.98
2019-02-19T07:00:52.844Z,61.02
2019-02-19T07:03:25.508Z,60.17
2019-02-19T07:05:53.951Z,61.32
2019-02-19T07:08:22.296Z,61.08
2019-02-19T07:10:50.621Z,62.06
2019-02-19T07:13:18.964Z,59.97
2019-02-19T07:15:47.255Z,61.44
2019-02-19T07:18:15.661Z,60.16
2019-02-19T07:20:43.945Z,61.22
2019-02-19T07:23:12.270Z,60.85
2019-02-19T07:25:40.603Z,60.94
2019-02-19T07:28:09.026Z,60.39
2019-02-19T07:30:37.455Z,61.31
2019-02-19T07:33:05.847Z,60.13
2019-02-19T07:35:34.179Z,59.89
2019-02-19T07:38:02.585Z,59.20
2019-02-19T07:40:30.937Z,61.20
2019-02-19T07:43:00.752Z,61.03
2019-02-19T07:45:29.315Z,61.17
2019-02-19T07:47:57.593Z,61.15
2019-02-19T07:50:26.059Z,61.02
2019-02-19T07:52:54.429Z,60.20
2019-02-19T07:55:22.805Z,60.30
2019-02-19T07:57:51.219Z,60.02
2019-02-19T08:00:19.661Z,60.89
2019-02-19T08:02:47.959Z,61.40
2019-02-19T08:05:16.339Z,61.13
2019-02-19T08:07:44.668Z,61.32
2019-02-19T08:10:14.483Z,61.58
2019-02-19T08:12:42.818Z,61.79
2019-02-19T08:15:11.934Z,62.77
2019-02-19T08:17:40.354Z,62.68
2019-02-19T08:20:16.010Z,63.13
2019-02-19T08:22:40.260Z,62.65
2019-02-19T08:25:08.650Z,64.09
2019-02-19T08:27:36.986Z,63.49
2019-02-19T08:30:08.255Z,65.07
2019-02-19T08:32:36.556Z,64.02
2019-02-19T08:35:06.434Z,65.19
2019-02-19T08:37:34.750Z,65.68
2019-02-19T08:40:03.152Z,65.76
2019-02-19T08:42:31.608Z,66.44
2019-02-19T08:45:00.962Z,68.46
2019-02-19T08:47:29.316Z,67.50
2019-02-19T08:49:58.939Z,67.61
2019-02-19T08:52:27.270Z,70.02
2019-02-19T08:54:55.552Z,69.26
2019-02-19T08:57:23.966Z,72.17
2019-02-19T08:59:52.319Z,72.24
2019-02-19T09:02:20.754Z,73.40
2019-02-19T09:04:49.255Z,75.05
2019-02-19T09:07:17.591Z,74.76
2019-02-19T09:09:47.564Z,74.38
2019-02-19T09:12:15.872Z,74.54
2019-02-19T09:14:44.203Z,74.82
2019-02-19T09:17:12.633Z,74.36
2019-02-19T09:19:41.044Z,80.20
2019-02-19T09:22:09.530Z,77.80
2019-02-19T09:24:37.867Z,79.45
2019-02-19T09:27:06.259Z,79.47
2019-02-19T09:29:34.681Z,77.53
2019-02-19T09:32:03.058Z,100.00
2019-02-19T09:34:31.393Z,100.00
2019-02-19T09:36:59.837Z,100.00
2019-02-19T09:39:28.143Z,100.00
2019-02-19T09:41:56.497Z,100.00
2019-02-19T09:44:25.034Z,100.00
2019-02-19T09:46:53.377Z,100.00
2019-02-19T09:49:21.703Z,100.00
2019-02-19T09:51:50.079Z,99.26
2019-02-19T09:54:18.402Z,100.00
2019-02-19T09:56:46.713Z,100.00
2019-02-19T09:59:15.133Z,98.60
2019-02-19T10:01:43.436Z,96.68
2019-02-19T10:04:11.757Z,98.74
2019-02-19T10:06:41.736Z,96.10
2019-02-19T10:09:10.065Z,95.38
2019-02-19T10:11:38.435Z,98.31
2019-02-19T10:14:06.944Z,99.36
2019-02-19T10:16:41.453Z,99.76
2019-02-19T10:19:05.372Z,94.70
2019-02-19T10:21:33.696Z,94.84
2019-02-19T10:24:02.021Z,95.05
2019-02-19T10:26:30.374Z,94.84
2019-02-19T10:29:07.209Z,94.50
2019-02-19T10:31:47.550Z,97.30
2019-02-19T10:34:15.889Z,93.20
2019-02-19T10:36:44.221Z,95.40
2019-02-19T10:39:12.744Z,92.96
2019-02-19T10:41:41.699Z,95.27
2019-02-19T10:44:09.992Z,94.02
2019-02-19T10:46:38.362Z,93.36
2019-02-19T10:49:06.717Z,94.76
2019-02-19T10:51:35.257Z,98.18
2019-02-19T10:54:03.487Z,96.78
2019-02-19T10:56:33.803Z,99.41
2019-02-19T10:59:02.195Z,97.69
2019-02-19T11:01:30.716Z,98.34
2019-02-19T11:03:59.042Z,98.59
2019-02-19T11:06:27.302Z,97.35
2019-02-19T11:08:55.748Z,97.96
2019-02-19T11:11:24.036Z,95.70
2019-02-19T11:13:52.668Z,97.60
2019-02-19T11:16:21.094Z,96.28
2019-02-19T11:18:51.839Z,97.51
2019-02-19T11:21:20.375Z,95.02
2019-02-19T11:23:48.688Z,95.12
2019-02-19T11:26:21.717Z,96.44
2019-02-19T11:28:50.010Z,92.88
2019-02-19T11:31:18.405Z,89.97
2019-02-19T11:33:46.708Z,90.96
2019-02-19T11:36:15.021Z,91.82
2019-02-19T11:38:43.360Z,92.46
2019-02-19T11:41:19.153Z,88.33
2019-02-19T11:43:47.526Z,89.94
2019-02-19T11:46:15.840Z,92.32
2019-02-19T11:48:44.139Z,90.38
2019-02-19T11:51:12.438Z,90.56
2019-02-19T11:53:40.751Z,91.36
2019-02-19T11:56:09.088Z,89.80
2019-02-19T11:58:37.366Z,90.38
2019-02-19T12:01:06.183Z,90.78
2019-02-19T12:03:34.508Z,91.38
2019-02-19T12:06:02.841Z,89.42
2019-02-19T12:08:38.894Z,87.25
2019-02-19T12:11:01.294Z,85.52
2019-02-19T12:13:29.590Z,85.71
2019-02-19T12:15:57.982Z,81.91
2019-02-19T12:18:26.266Z,74.67
2019-02-19T12:20:54.562Z,71.99
2019-02-19T12:23:22.920Z,75.49
2019-02-19T12:25:53.712Z,77.63
2019-02-19T12:28:23.219Z,75.23
2019-02-19T12:30:51.507Z,71.96
2019-02-19T12:33:19.979Z,71.57
2019-02-19T12:35:48.247Z,71.79
2019-02-19T12:38:16.555Z,75.39
2019-02-19T12:40:44.979Z,70.68
2019-02-19T12:43:13.282Z,68.23
2019-02-19T12:45:41.663Z,69.58
2019-02-19T12:48:10.008Z,63.82
2019-02-19T12:50:38.327Z,62.80
2019-02-19T12:53:06.595Z,62.19
2019-02-19T12:55:34.883Z,59.03
2019-02-19T12:58:03.268Z,61.02
2019-02-19T13:00:32.130Z,59.16
2019-02-19T13:03:00.639Z,58.18
2019-02-19T13:05:29.192Z,58.04
2019-02-19T13:07:57.511Z,60.40
2019-02-19T13:10:25.916Z,60.01
2019-02-19T13:12:54.364Z,57.76
2019-02-19T13:15:22.956Z,60.96
2019-02-19T13:17:51.366Z,63.97
2019-02-19T13:20:19.641Z,61.02
2019-02-19T13:22:48.073Z,58.92
2019-02-19T13:25:16.737Z,55.96
2019-02-19T13:27:45.615Z,56.55
2019-02-19T13:30:16.848Z,57.00
2019-02-19T13:32:45.153Z,56.28
2019-02-19T13:35:14.180Z,56.45
2019-02-19T13:37:43.356Z,55.20
2019-02-19T13:40:13.908Z,54.04
2019-02-19T13:42:42.563Z,53.35
2019-02-19T13:45:13.884Z,53.95
2019-02-19T13:47:43.123Z,54.31
2019-02-19T13:50:17.141Z,55.06
2019-02-19T13:52:47.076Z,55.11
2019-02-19T13:55:17.170Z,56.05
2019-02-19T13:57:45.529Z,54.95
2019-02-19T14:00:15.569Z,54.14
2019-02-19T14:02:44.754Z,54.94
2019-02-19T14:05:13.120Z,53.96
2019-02-19T14:07:41.423Z,54.06
2019-02-19T14:10:11.354Z,57.32
2019-02-19T14:12:39.700Z,57.21
2019-02-19T14:15:11.990Z,55.99
2019-02-19T14:17:40.406Z,52.22
2019-02-19T14:20:10.483Z,50.89
2019-02-19T14:22:43.241Z,53.00
2019-02-19T14:25:31.680Z,58.95
2019-02-19T14:28:10.810Z,56.93
2019-02-19T14:30:40.781Z,55.01
2019-02-19T14:33:10.763Z,55.13
2019-02-19T14:35:40.685Z,54.26
2019-02-19T14:38:16.952Z,52.44
2019-02-19T14:41:05.116Z,55.14
2019-02-19T14:43:41.525Z,52.33
2019-02-19T14:46:23.299Z,48.55
2019-02-19T14:49:09.179Z,50.92
2019-02-19T14:51:55.588Z,52.40
2019-02-19T14:54:40.653Z,53.19
2019-02-19T14:57:19.580Z,50.12
2019-02-19T15:00:10.772Z,52.67
2019-02-19T15:02:59.642Z,50.52
2019-02-19T15:05:45.584Z,49.27
2019-02-19T15:08:33.564Z,49.44
2019-02-19T15:11:05.940Z,46.90
2019-02-19T15:13:48.176Z,49.76
2019-02-19T15:16:18.181Z,51.55
2019-02-19T15:19:04.293Z,53.10
2019-02-19T15:21:52.362Z,55.16
2019-02-19T15:24:22.367Z,57.93
2019-02-19T15:26:52.321Z,58.99
2019-02-19T15:29:34.222Z,58.55
2019-02-19T15:32:07.319Z,57.56
2019-02-19T15:34:37.245Z,56.47
2019-02-19T15:37:16.492Z,58.40
2019-02-19T15:39:58.375Z,58.98
2019-02-19T15:42:28.542Z,58.11
2019-02-19T15:45:16.670Z,57.47
2019-02-19T15:48:01.916Z,55.79
2019-02-19T15:50:48.052Z,57.73
2019-02-19T15:56:17.633Z,57.00
2019-02-19T15:58:55.992Z,57.76
2019-02-19T16:01:30.658Z,58.78
2019-02-19T16:04:08.131Z,57.14
2019-02-19T16:06:54.190Z,56.45
2019-02-19T16:09:32.934Z,56.66
2019-02-19T16:12:05.471Z,58.15
2019-02-19T16:14:43.932Z,58.00
2019-02-19T16:17:19.861Z,58.79
2019-02-19T16:19:56.790Z,60.48
2019-02-19T16:22:24.556Z,59.67
2019-02-19T16:28:04.833Z,59.08
2019-02-19T16:30:43.735Z,59.33
2019-02-19T16:33:30.263Z,60.22
2019-02-19T16:36:03.170Z,59.74
2019-02-19T16:38:38.822Z,58.12
2019-02-19T16:41:08.830Z,59.73
2019-02-19T16:43:44.827Z,59.28
2019-02-19T16:46:17.602Z,57.50
2019-02-19T16:48:50.205Z,57.70
2019-02-19T16:51:28.727Z,57.52
2019-02-19T16:54:04.576Z,57.77
2019-02-19T16:56:34.611Z,57.40
2019-02-19T16:59:07.966Z,57.84
2019-02-19T17:01:54.302Z,58.37
2019-02-19T17:04:27.275Z,59.19
2019-02-19T17:06:57.545Z,59.05
2019-02-19T17:09:27.600Z,59.45
2019-02-19T17:11:57.600Z,59.71
2019-02-19T17:14:39.379Z,61.56
2019-02-19T17:17:15.206Z,63.04
2019-02-19T17:22:35.491Z,61.71
2019-02-19T17:25:16.185Z,62.45
2019-02-19T17:28:09.792Z,62.10
2019-02-19T17:30:55.966Z,63.63
2019-02-19T17:33:25.953Z,63.43
2019-02-19T17:36:14.904Z,63.71
2019-02-19T17:38:44.803Z,64.43
2019-02-19T17:41:31.337Z,64.80
2019-02-19T17:44:10.374Z,64.86
2019-02-19T17:46:45.998Z,64.02
2019-02-19T17:49:15.952Z,66.03
2019-02-19T17:51:48.829Z,65.15
2019-02-19T17:54:19.435Z,64.11
2019-02-19T17:57:06.162Z,64.21
2019-02-19T17:59:41.696Z,64.58
2019-02-19T18:02:14.694Z,66.29
2019-02-19T18:04:50.102Z,64.64
2019-02-19T18:07:35.048Z,64.28
2019-02-19T18:10:05.295Z,63.69
2019-02-19T18:12:41.227Z,64.33
2019-02-19T18:15:26.724Z,63.11
2019-02-19T18:18:02.335Z,65.16
2019-02-19T18:20:30.707Z,65.22
2019-02-19T18:22:59.036Z,64.47
2019-02-19T18:25:27.521Z,64.43
2019-02-19T18:27:55.889Z,65.23
2019-02-19T18:30:24.266Z,63.34
2019-02-19T18:32:52.580Z,65.35
2019-02-19T18:35:21.132Z,65.26
2019-02-19T18:41:18.357Z,65.26
2019-02-19T18:47:17.089Z,62.80
2019-02-19T18:49:48.458Z,61.78
2019-02-19T18:52:16.718Z,63.73
2019-02-19T18:54:45.023Z,64.25
2019-02-19T18:57:13.313Z,62.90
2019-02-19T18:59:41.647Z,63.40
2019-02-19T19:02:09.934Z,64.82
2019-02-19T19:04:38.567Z,63.69
2019-02-19T19:07:06.869Z,64.36
2019-02-19T19:09:35.171Z,66.27
2019-02-19T19:12:03.529Z,63.05
2019-02-19T19:14:31.833Z,64.28
2019-02-19T19:17:00.126Z,62.20
2019-02-19T19:19:28.422Z,64.27
2019-02-19T19:21:56.704Z,63.73
2019-02-19T19:24:25.007Z,64.00
2019-02-19T19:26:53.424Z,65.33
2019-02-19T19:29:21.710Z,64.15
2019-02-19T19:31:50.222Z,67.96
2019-02-19T19:34:18.657Z,67.32
2019-02-19T19:36:46.937Z,65.62
2019-02-19T19:39:15.324Z,67.16
2019-02-19T19:41:43.657Z,65.64
2019-02-19T19:44:11.993Z,65.24
2019-02-19T19:46:41.182Z,64.16
2019-02-19T19:49:09.518Z,65.71
2019-02-19T19:51:37.844Z,65.89
2019-02-19T19:54:06.129Z,67.93
2019-02-19T19:56:34.413Z,67.79
2019-02-19T19:59:02.717Z,67.83
2019-02-19T20:01:31.163Z,66.72
2019-02-19T20:03:59.424Z,68.40
2019-02-19T20:06:27.823Z,65.81
2019-02-19T20:08:56.122Z,66.30
2019-02-19T20:11:24.409Z,64.66
2019-02-19T20:13:52.791Z,65.34
2019-02-19T20:16:21.521Z,66.69
2019-02-19T20:18:49.962Z,67.06
2019-02-19T20:21:26.488Z,66.43
2019-02-19T20:23:49.983Z,68.18
2019-02-19T20:26:19.162Z,68.11
2019-02-19T20:28:47.916Z,67.73
2019-02-19T20:31:16.874Z,67.53
2019-02-19T20:33:45.660Z,67.67
2019-02-19T20:36:13.913Z,67.25
2019-02-19T20:38:42.670Z,66.93
2019-02-19T20:41:11.096Z,69.17
2019-02-19T20:43:39.375Z,67.15
2019-02-19T20:46:08.378Z,69.83
2019-02-19T20:48:37.001Z,68.48
2019-02-19T20:51:05.319Z,70.16
2019-02-19T20:53:33.645Z,68.33
2019-02-19T20:56:02.528Z,69.20
2019-02-19T20:58:30.821Z,68.69
2019-02-19T21:00:59.125Z,67.91
2019-02-19T21:03:27.426Z,69.30
2019-02-19T21:05:55.708Z,69.50
2019-02-19T21:08:24.063Z,71.18
2019-02-19T21:10:53.907Z,71.48
2019-02-19T21:13:22.406Z,69.91
2019-02-19T21:15:50.729Z,70.11
2019-02-19T21:18:20.320Z,70.91
2019-02-19T21:20:48.616Z,71.08
2019-02-19T21:23:17.158Z,70.25
2019-02-19T21:25:45.569Z,69.64
2019-02-19T21:28:13.934Z,71.79
2019-02-19T21:30:42.437Z,71.92
2019-02-19T21:33:11.186Z,70.34
2019-02-19T21:35:39.515Z,71.08
2019-02-19T21:38:10.939Z,70.18
2019-02-19T21:40:39.454Z,70.33
2019-02-19T21:43:07.855Z,69.44
2019-02-19T21:45:37.562Z,71.91
2019-02-19T21:48:05.888Z,72.34
2019-02-19T21:50:34.278Z,72.94
2019-02-19T21:53:02.588Z,70.52
2019-02-19T21:55:30.920Z,72.43
2019-02-19T21:57:59.797Z,72.46
2019-02-19T22:00:28.292Z,70.78
2019-02-19T22:02:56.703Z,72.29
2019-02-19T22:05:25.050Z,72.41
2019-02-19T22:07:53.339Z,71.51
2019-02-19T22:10:21.679Z,71.92
2019-02-19T22:12:50.045Z,72.39
2019-02-19T22:15:18.318Z,72.00
2019-02-19T22:17:46.624Z,73.01
2019-02-19T22:20:31.310Z,71.56
2019-02-19T22:22:59.636Z,70.72
2019-02-19T22:25:28.236Z,69.05
2019-02-19T22:27:56.557Z,68.33
2019-02-19T22:30:24.833Z,72.04
2019-02-19T22:32:53.218Z,72.39
2019-02-19T22:35:21.599Z,71.25
2019-02-19T22:37:49.922Z,72.03
2019-02-19T22:40:18.200Z,73.47
2019-02-19T22:42:46.537Z,72.40
2019-02-19T22:45:14.964Z,72.30
2019-02-19T22:47:43.243Z,70.07
2019-02-19T22:50:11.646Z,71.85
2019-02-19T22:52:39.909Z,72.76
2019-02-19T22:55:23.460Z,69.82
2019-02-19T22:57:51.876Z,68.06
2019-02-19T23:00:49.302Z,72.07
2019-02-19T23:03:19.307Z,69.86
2019-02-19T23:05:47.573Z,70.01
2019-02-19T23:08:15.889Z,70.16
2019-02-19T23:10:44.402Z,71.20
2019-02-19T23:13:12.681Z,73.00
2019-02-19T23:15:41.075Z,74.28
2019-02-19T23:18:09.366Z,72.42
2019-02-19T23:20:37.666Z,72.15
2019-02-19T23:23:05.974Z,69.29
2019-02-19T23:25:34.337Z,69.29
2019-02-19T23:28:02.776Z,72.59
2019-02-19T23:30:31.066Z,73.29
2019-02-19T23:32:59.374Z,72.32
2019-02-19T23:35:29.322Z,72.22
2019-02-19T23:37:57.713Z,72.58
2019-02-19T23:40:25.982Z,75.48
2019-02-19T23:42:54.244Z,75.18
2019-02-19T23:45:22.529Z,72.83
2019-02-19T23:47:50.836Z,75.87
2019-02-19T23:50:19.146Z,74.51
2019-02-19T23:52:47.415Z,73.47
2019-02-19T23:55:15.718Z,73.78
2019-02-19T23:57:44.024Z,75.22
